createdAt,value
2018-04-08T00:01:24.569Z,10.60
2018-04-08T00:04:27.677Z,10.07
2018-04-08T00:07:30.815Z,9.73
2018-04-08T00:10:33.944Z,9.93
2018-04-08T00:13:37.797Z,9.37
2018-04-08T00:16:40.914Z,9.30
2018-04-08T00:19:44.005Z,9.53
2018-04-08T00:22:47.120Z,9.33
2018-04-08T00:25:50.241Z,9.70
2018-04-08T00:28:53.333Z,9.07
2018-04-08T00:31:56.448Z,10.33
2018-04-08T00:34:59.562Z,9.47
2018-04-08T00:38:02.689Z,9.10
2018-04-08T00:41:05.806Z,9.63
2018-04-08T00:44:08.966Z,8.87
2018-04-08T00:47:12.091Z,9.83
2018-04-08T00:50:15.182Z,9.83
2018-04-08T00:53:18.295Z,8.77
2018-04-08T00:56:21.405Z,8.93
2018-04-08T00:59:24.491Z,8.33
2018-04-08T01:02:28.384Z,9.90
2018-04-08T01:05:31.476Z,8.67
2018-04-08T01:08:34.598Z,8.60
2018-04-08T01:11:37.716Z,13.83
2018-04-08T01:14:40.809Z,10.43
2018-04-08T01:17:43.956Z,9.17
2018-04-08T01:20:47.815Z,9.77
2018-04-08T01:23:50.934Z,10.67
2018-04-08T01:26:54.061Z,9.03
2018-04-08T01:29:57.175Z,9.40
2018-04-08T01:33:00.314Z,9.03
2018-04-08T01:36:04.178Z,9.73
2018-04-08T01:39:07.285Z,9.00
2018-04-08T01:42:10.401Z,10.57
2018-04-08T01:45:13.494Z,11.80
2018-04-08T01:48:16.614Z,9.43
2018-04-08T01:51:19.704Z,10.17
2018-04-08T01:54:22.827Z,9.83
2018-04-08T01:57:25.933Z,9.83
2018-04-08T02:00:30.153Z,9.23
2018-04-08T02:03:33.274Z,9.40
2018-04-08T02:06:36.397Z,12.43
2018-04-08T02:09:39.493Z,12.97
2018-04-08T02:12:42.633Z,21.20
2018-04-08T02:15:45.753Z,16.30
2018-04-08T02:18:48.874Z,16.00
2018-04-08T02:21:52.761Z,16.67
2018-04-08T02:24:55.855Z,22.30
2018-04-08T02:27:58.987Z,13.00
2018-04-08T02:31:02.101Z,12.60
2018-04-08T02:34:05.229Z,11.47
2018-04-08T02:37:09.114Z,16.63
2018-04-08T02:40:12.222Z,13.77
2018-04-08T02:43:15.337Z,11.73
2018-04-08T02:46:18.428Z,12.57
2018-04-08T02:49:21.559Z,11.23
2018-04-08T02:52:24.674Z,12.00
2018-04-08T02:55:29.306Z,11.17
2018-04-08T02:58:32.433Z,10.33
2018-04-08T03:01:36.296Z,10.67
2018-04-08T03:04:39.443Z,10.17
2018-04-08T03:07:42.559Z,11.00
2018-04-08T03:10:45.655Z,10.77
2018-04-08T03:13:48.777Z,15.00
2018-04-08T03:16:51.871Z,11.73
2018-04-08T03:19:54.989Z,11.83
2018-04-08T03:22:58.170Z,12.67
2018-04-08T03:26:01.287Z,11.57
2018-04-08T03:29:04.414Z,10.80
2018-04-08T03:32:07.532Z,14.53
2018-04-08T03:35:10.660Z,10.77
2018-04-08T03:38:14.546Z,10.87
2018-04-08T03:41:17.646Z,11.37
2018-04-08T03:44:20.782Z,11.47
2018-04-08T03:47:23.888Z,11.93
2018-04-08T03:50:27.044Z,9.87
2018-04-08T03:53:30.168Z,10.17
2018-04-08T03:56:33.269Z,10.10
2018-04-08T03:59:36.390Z,9.87
2018-04-08T04:02:39.526Z,10.17
2018-04-08T04:05:42.627Z,15.70
2018-04-08T04:08:45.755Z,12.80
2018-04-08T04:11:49.625Z,10.57
2018-04-08T04:14:52.760Z,10.20
2018-04-08T04:17:55.901Z,10.27
2018-04-08T04:21:10.965Z,10.00
2018-04-08T04:27:52.383Z,10.98
2018-04-08T04:30:55.516Z,11.23
2018-04-08T04:33:59.133Z,10.67
2018-04-08T04:37:02.361Z,15.03
2018-04-08T04:40:06.271Z,11.20
2018-04-08T04:43:09.410Z,13.83
2018-04-08T04:46:13.295Z,16.70
2018-04-08T04:49:16.431Z,12.97
2018-04-08T04:52:20.311Z,13.57
2018-04-08T04:55:23.425Z,15.63
2018-04-08T04:58:26.558Z,10.67
2018-04-08T05:01:29.655Z,13.70
2018-04-08T05:04:32.874Z,11.27
2018-04-08T05:07:35.969Z,10.20
2018-04-08T05:10:39.097Z,10.40
2018-04-08T05:13:42.217Z,10.40
2018-04-08T05:16:46.085Z,13.53
2018-04-08T05:19:49.198Z,12.97
2018-04-08T05:22:52.289Z,11.37
2018-04-08T05:25:55.411Z,9.97
2018-04-08T05:28:58.569Z,10.43
2018-04-08T05:32:02.482Z,10.00
2018-04-08T05:35:05.613Z,11.93
2018-04-08T05:38:09.482Z,11.27
2018-04-08T05:41:12.650Z,10.10
2018-04-08T05:44:16.537Z,10.27
2018-04-08T05:47:19.627Z,10.23
2018-04-08T05:50:22.754Z,11.27
2018-04-08T05:53:25.846Z,10.70
2018-04-08T05:56:28.989Z,11.77
2018-04-08T05:59:32.891Z,10.43
2018-04-08T06:02:35.976Z,10.60
2018-04-08T06:05:39.088Z,11.47
2018-04-08T06:08:42.182Z,10.27
2018-04-08T06:11:45.298Z,10.53
2018-04-08T06:14:48.421Z,10.00
2018-04-08T06:17:51.519Z,10.17
2018-04-08T06:20:54.643Z,9.93
2018-04-08T06:23:57.754Z,13.10
2018-04-08T06:27:00.882Z,10.87
2018-04-08T06:30:04.025Z,11.17
2018-04-08T06:33:07.117Z,14.70
2018-04-08T06:36:11.013Z,11.87
2018-04-08T06:39:14.138Z,13.27
2018-04-08T06:42:18.028Z,13.47
2018-04-08T06:45:21.145Z,11.47
2018-04-08T06:48:24.266Z,14.80
2018-04-08T06:51:27.504Z,11.97
2018-04-08T06:54:31.418Z,13.60
2018-04-08T06:57:35.292Z,11.00
2018-04-08T07:00:38.411Z,14.40
2018-04-08T07:03:41.525Z,13.67
2018-04-08T07:06:44.638Z,11.57
2018-04-08T07:09:47.769Z,11.50
2018-04-08T07:12:51.620Z,12.90
2018-04-08T07:15:54.736Z,11.03
2018-04-08T07:18:57.898Z,11.17
2018-04-08T07:22:01.143Z,11.37
2018-04-08T07:25:04.346Z,11.67
2018-04-08T07:28:08.282Z,12.87
2018-04-08T07:31:11.403Z,10.27
2018-04-08T07:34:14.503Z,11.63
2018-04-08T07:37:17.627Z,12.80
2018-04-08T07:40:20.768Z,10.60
2018-04-08T07:43:23.885Z,10.67
2018-04-08T07:46:27.041Z,11.10
2018-04-08T07:49:30.166Z,11.33
2018-04-08T07:52:33.286Z,10.53
2018-04-08T07:55:36.412Z,10.87
2018-04-08T07:58:39.517Z,11.17
2018-04-08T08:01:44.168Z,10.73
2018-04-08T08:04:47.252Z,10.47
2018-04-08T08:07:50.377Z,14.00
2018-04-08T08:10:53.501Z,13.33
2018-04-08T08:13:56.636Z,11.93
2018-04-08T08:16:59.801Z,11.33
2018-04-08T08:20:03.150Z,11.20
2018-04-08T08:23:07.012Z,10.87
2018-04-08T08:26:10.125Z,10.73
2018-04-08T08:29:13.220Z,16.37
2018-04-08T08:32:16.353Z,21.63
2018-04-08T08:35:19.477Z,15.80
2018-04-08T08:38:22.584Z,12.57
2018-04-08T08:41:25.718Z,12.63
2018-04-08T08:44:29.589Z,11.97
2018-04-08T08:47:32.743Z,11.37
2018-04-08T08:50:35.857Z,11.40
2018-04-08T08:53:39.727Z,10.67
2018-04-08T08:56:42.870Z,11.40
2018-04-08T08:59:45.987Z,10.73
2018-04-08T09:02:49.881Z,10.63
2018-04-08T09:05:53.007Z,12.53
2018-04-08T09:08:56.102Z,10.67
2018-04-08T09:11:59.231Z,10.87
2018-04-08T09:15:02.341Z,11.77
2018-04-08T09:18:05.480Z,11.83
2018-04-08T09:24:38.322Z,11.63
2018-04-08T09:27:41.445Z,10.60
2018-04-08T09:30:44.566Z,14.63
2018-04-08T09:33:47.664Z,12.50
2018-04-08T09:36:50.789Z,14.17
2018-04-08T09:39:53.885Z,13.80
2018-04-08T09:42:57.046Z,12.80
2018-04-08T09:46:00.958Z,14.97
2018-04-08T09:49:04.064Z,16.73
2018-04-08T09:52:07.199Z,16.77
2018-04-08T09:55:11.075Z,14.23
2018-04-08T09:58:14.222Z,14.57
2018-04-08T10:01:23.575Z,25.30
2018-04-08T10:04:27.458Z,34.50
2018-04-08T10:07:30.609Z,33.83
2018-04-08T10:10:34.486Z,44.80
2018-04-08T10:13:37.615Z,45.20
2018-04-08T10:16:40.740Z,70.93
2018-04-08T10:19:43.850Z,58.80
2018-04-08T10:22:46.964Z,55.63
2018-04-08T10:25:50.062Z,64.07
2018-04-08T10:28:53.202Z,93.10
2018-04-08T10:31:56.327Z,98.03
2018-04-08T10:34:59.500Z,81.20
2018-04-08T10:38:03.353Z,65.47
2018-04-08T10:41:06.758Z,53.93
2018-04-08T10:44:10.654Z,48.47
2018-04-08T10:47:13.795Z,37.33
2018-04-08T10:50:16.907Z,34.77
2018-04-08T10:53:20.034Z,29.30
2018-04-08T10:56:23.126Z,27.37
2018-04-08T10:59:26.256Z,26.33
2018-04-08T11:02:29.431Z,24.77
2018-04-08T11:05:33.318Z,21.63
2018-04-08T11:08:36.440Z,21.40
2018-04-08T11:11:39.541Z,20.20
2018-04-08T11:14:42.667Z,18.50
2018-04-08T11:17:46.558Z,17.47
2018-04-08T11:20:49.658Z,17.63
2018-04-08T11:23:52.789Z,67.73
2018-04-08T11:26:55.882Z,68.63
2018-04-08T11:29:59.082Z,64.03
2018-04-08T11:33:02.205Z,57.30
2018-04-08T11:36:05.413Z,47.67
2018-04-08T11:39:08.547Z,40.40
2018-04-08T11:42:12.486Z,36.97
2018-04-08T11:45:16.401Z,33.83
2018-04-08T11:48:20.290Z,27.23
2018-04-08T11:51:23.409Z,28.50
2018-04-08T11:54:26.530Z,25.27
2018-04-08T11:57:29.639Z,23.80
2018-04-08T12:00:32.775Z,22.33
2018-04-08T12:03:36.659Z,21.40
2018-04-08T12:06:39.755Z,20.80
2018-04-08T12:09:42.879Z,20.93
2018-04-08T12:12:45.988Z,18.70
2018-04-08T12:15:49.109Z,17.90
2018-04-08T12:18:52.235Z,19.97
2018-04-08T12:21:56.118Z,16.07
2018-04-08T12:24:59.260Z,17.47
2018-04-08T12:28:02.461Z,15.60
2018-04-08T12:31:05.595Z,17.03
2018-04-08T12:34:08.826Z,15.90
2018-04-08T12:37:11.939Z,15.93
2018-04-08T12:40:15.084Z,16.60
2018-04-08T12:43:18.203Z,16.93
2018-04-08T12:46:22.099Z,16.10
2018-04-08T12:49:25.230Z,15.83
2018-04-08T12:52:28.385Z,15.90
2018-04-08T12:55:31.577Z,16.67
2018-04-08T12:58:35.449Z,16.10
2018-04-08T13:01:38.578Z,99.10
2018-04-08T13:04:41.715Z,194.77
2018-04-08T13:07:45.629Z,163.03
2018-04-08T13:10:48.749Z,143.07
2018-04-08T13:13:52.672Z,127.87
2018-04-08T13:16:56.585Z,142.07
2018-04-08T13:20:00.504Z,141.03
2018-04-08T13:23:03.630Z,142.00
2018-04-08T13:26:07.534Z,131.97
2018-04-08T13:29:11.416Z,115.97
2018-04-08T13:32:14.546Z,99.30
2018-04-08T13:35:17.679Z,80.67
2018-04-08T13:38:20.791Z,74.60
2018-04-08T13:41:23.926Z,75.10
2018-04-08T13:44:27.804Z,88.00
2018-04-08T13:47:30.945Z,94.00
2018-04-08T13:50:34.090Z,89.63
2018-04-08T13:53:37.202Z,82.30
2018-04-08T13:56:40.349Z,76.47
2018-04-08T13:59:43.468Z,66.80
2018-04-08T14:02:46.609Z,63.50
2018-04-08T14:05:49.730Z,64.10
2018-04-08T14:08:52.843Z,57.10
2018-04-08T14:11:55.961Z,52.87
2018-04-08T14:14:59.119Z,50.13
2018-04-08T14:18:03.028Z,46.70
2018-04-08T14:21:06.147Z,43.53
2018-04-08T14:24:09.277Z,42.13
2018-04-08T14:27:12.402Z,40.47
2018-04-08T14:30:15.498Z,38.40
2018-04-08T14:33:18.621Z,35.97
2018-04-08T14:36:21.742Z,34.07
2018-04-08T14:39:24.841Z,31.80
2018-04-08T14:42:27.973Z,31.63
2018-04-08T14:45:31.141Z,28.87
2018-04-08T14:48:34.278Z,27.13
2018-04-08T14:51:37.406Z,26.13
2018-04-08T14:54:40.548Z,26.07
2018-04-08T14:57:44.442Z,25.37
2018-04-08T15:00:47.547Z,23.53
2018-04-08T15:03:50.662Z,22.73
2018-04-08T15:06:53.802Z,21.73
2018-04-08T15:09:57.679Z,21.10
2018-04-08T15:13:00.837Z,20.00
2018-04-08T15:16:04.725Z,18.27
2018-04-08T15:19:07.820Z,19.63
2018-04-08T15:22:10.982Z,18.13
2018-04-08T15:25:14.083Z,18.27
2018-04-08T15:28:17.971Z,15.97
2018-04-08T15:31:21.090Z,15.60
2018-04-08T15:34:24.184Z,17.13
2018-04-08T15:37:27.426Z,16.37
2018-04-08T15:40:31.311Z,16.10
2018-04-08T15:43:34.438Z,13.87
2018-04-08T15:46:37.561Z,14.33
2018-04-08T15:49:40.703Z,14.53
2018-04-08T15:52:43.822Z,16.33
2018-04-08T15:55:46.948Z,13.97
2018-04-08T15:58:50.075Z,13.37
2018-04-08T16:01:53.201Z,12.83
2018-04-08T16:04:56.315Z,14.37
2018-04-08T16:07:59.451Z,27.87
2018-04-08T16:11:02.574Z,52.67
2018-04-08T16:14:05.703Z,67.60
2018-04-08T16:17:08.859Z,92.67
2018-04-08T16:20:12.746Z,99.00
2018-04-08T16:23:15.923Z,101.10
2018-04-08T16:26:19.028Z,95.47
2018-04-08T16:29:22.155Z,88.07
2018-04-08T16:32:25.283Z,82.40
2018-04-08T16:35:29.030Z,79.67
2018-04-08T16:38:32.186Z,71.23
2018-04-08T16:41:36.461Z,61.97
2018-04-08T16:44:39.612Z,55.77
2018-04-08T16:47:42.772Z,48.53
2018-04-08T16:50:45.946Z,43.73
2018-04-08T16:53:49.060Z,42.80
2018-04-08T16:56:52.149Z,49.00
2018-04-08T16:59:55.281Z,76.40
2018-04-08T17:02:58.437Z,95.43
2018-04-08T17:06:02.415Z,95.33
2018-04-08T17:09:05.548Z,98.33
2018-04-08T17:12:08.651Z,93.37
2018-04-08T17:15:11.809Z,83.70
2018-04-08T17:18:14.940Z,74.10
2018-04-08T17:21:18.043Z,63.37
2018-04-08T17:24:21.166Z,57.27
2018-04-08T17:27:24.269Z,49.97
2018-04-08T17:30:27.459Z,43.87
2018-04-08T17:33:30.638Z,38.87
2018-04-08T17:36:34.530Z,38.07
2018-04-08T17:39:37.654Z,34.50
2018-04-08T17:42:40.758Z,33.63
2018-04-08T17:45:43.885Z,30.60
2018-04-08T17:48:47.773Z,25.40
2018-04-08T17:51:50.879Z,24.07
2018-04-08T17:54:54.024Z,22.90
2018-04-08T17:57:58.033Z,19.23
2018-04-08T18:01:01.211Z,16.83
2018-04-08T18:04:04.410Z,16.77
2018-04-08T18:07:07.508Z,13.87
2018-04-08T18:10:10.639Z,12.87
2018-04-08T18:13:13.749Z,11.60
2018-04-08T18:16:16.877Z,10.87
2018-04-08T18:19:20.002Z,10.13
2018-04-08T18:22:23.096Z,10.97
2018-04-08T18:25:26.221Z,9.90
2018-04-08T18:28:29.317Z,8.50
2018-04-08T18:31:32.433Z,8.47
2018-04-08T18:34:35.527Z,7.97
2018-04-08T18:37:38.642Z,7.57
2018-04-08T18:40:41.762Z,7.73
2018-04-08T18:43:44.854Z,7.57
2018-04-08T18:46:47.977Z,8.70
2018-04-08T18:49:51.076Z,9.47
2018-04-08T18:52:54.203Z,7.97
2018-04-08T18:55:58.247Z,16.53
2018-04-08T18:59:01.362Z,16.30
2018-04-08T19:02:04.566Z,18.23
2018-04-08T19:05:08.435Z,12.30
2018-04-08T19:08:11.575Z,16.00
2018-04-08T19:11:14.702Z,22.53
2018-04-08T19:14:18.583Z,33.67
2018-04-08T19:17:27.143Z,42.03
2018-04-08T19:20:31.065Z,42.07
2018-04-08T19:23:34.189Z,40.60
2018-04-08T19:26:38.091Z,44.37
2018-04-08T19:29:41.208Z,41.53
2018-04-08T19:32:44.343Z,39.97
2018-04-08T19:35:48.265Z,43.80
2018-04-08T19:38:52.137Z,50.23
2018-04-08T19:41:55.277Z,65.40
2018-04-08T19:44:58.422Z,70.13
2018-04-08T19:48:01.578Z,75.00
2018-04-08T19:51:04.776Z,75.20
2018-04-08T19:54:07.883Z,72.20
2018-04-08T19:57:11.042Z,64.53
2018-04-08T20:00:14.992Z,63.40
2018-04-08T20:03:18.123Z,63.63
2018-04-08T20:06:21.259Z,58.90
2018-04-08T20:09:24.402Z,56.90
2018-04-08T20:12:27.567Z,58.30
2018-04-08T20:15:30.769Z,56.63
2018-04-08T20:18:33.905Z,54.60
2018-04-08T20:21:37.045Z,62.27
2018-04-08T20:24:40.150Z,97.30
2018-04-08T20:27:43.290Z,125.17
2018-04-08T20:30:46.535Z,128.23
2018-04-08T20:33:49.674Z,133.23
2018-04-08T20:36:52.833Z,128.43
2018-04-08T20:39:55.948Z,128.10
2018-04-08T20:42:59.894Z,120.50
2018-04-08T20:46:03.329Z,120.87
2018-04-08T20:49:06.534Z,110.33
2018-04-08T20:52:09.696Z,107.87
2018-04-08T20:55:12.798Z,94.77
2018-04-08T20:58:15.954Z,102.07
2018-04-08T21:01:19.823Z,80.30
2018-04-08T21:04:22.937Z,73.83
2018-04-08T21:07:26.080Z,68.07
2018-04-08T21:10:29.204Z,61.90
2018-04-08T21:13:33.122Z,55.13
2018-04-08T21:16:36.998Z,51.37
2018-04-08T21:19:40.154Z,48.70
2018-04-08T21:22:43.253Z,47.00
2018-04-08T21:25:46.493Z,42.20
2018-04-08T21:28:51.454Z,38.57
2018-04-08T21:31:55.457Z,37.77
2018-04-08T21:34:58.646Z,33.30
2018-04-08T21:38:01.787Z,31.27
2018-04-08T21:41:05.796Z,27.73
2018-04-08T21:44:09.748Z,27.53
2018-04-08T21:47:13.613Z,25.70
2018-04-08T21:50:16.732Z,25.97
2018-04-08T21:53:19.859Z,23.77
2018-04-08T21:56:22.998Z,21.37
2018-04-08T21:59:27.717Z,21.33
2018-04-08T22:02:32.109Z,20.97
2018-04-08T22:05:36.161Z,19.43
2018-04-08T22:08:39.267Z,18.83
2018-04-08T22:11:42.390Z,17.00
2018-04-08T22:14:47.022Z,17.20
2018-04-08T22:17:50.134Z,17.50
2018-04-08T22:20:53.289Z,17.17
2018-04-08T22:23:56.394Z,16.20
2018-04-08T22:27:00.306Z,16.10
2018-04-08T22:30:04.271Z,17.17
2018-04-08T22:33:07.373Z,14.33
2018-04-08T22:36:10.499Z,13.73
2018-04-08T22:39:13.619Z,15.30
2018-04-08T22:42:16.746Z,16.13
2018-04-08T22:45:19.896Z,16.00
2018-04-08T22:48:23.038Z,15.33
2018-04-08T22:51:26.164Z,12.27
2018-04-08T22:54:29.299Z,14.43
2018-04-08T22:57:33.216Z,17.07
2018-04-08T23:00:36.342Z,19.57
2018-04-08T23:03:40.211Z,15.40
2018-04-08T23:06:43.343Z,20.93
2018-04-08T23:09:46.537Z,18.40
2018-04-08T23:12:49.666Z,16.47
2018-04-08T23:15:52.814Z,18.03
2018-04-08T23:18:56.093Z,16.47
2018-04-08T23:22:00.024Z,18.20
2018-04-08T23:25:03.132Z,16.20
2018-04-08T23:28:06.272Z,21.47
2018-04-08T23:31:09.397Z,22.10
2018-04-08T23:34:12.501Z,19.53
2018-04-08T23:37:15.635Z,17.57
2018-04-08T23:40:18.739Z,20.50
2018-04-08T23:43:21.861Z,19.43
2018-04-08T23:46:24.980Z,18.53
2018-04-08T23:49:28.727Z,16.37
2018-04-08T23:52:31.922Z,18.63
2018-04-08T23:55:35.795Z,14.87
2018-04-08T23:58:38.922Z,15.03
